Time;durP1;ratioP1;P1;durP2;ratioP2;P2;SDS_P1;SDS_P2;PMS_P1;PMS_P2;Temp;Humidity;BMP_temperature;BMP_pressure;BME280_temperature;BME280_humidity;BME280_pressure;Samples;Min_cycle;Max_cycle;Signal;HPM_P1;HPM_P2
2024/03/04 00:00:43;;;;;;;36.53;24.53;;;9.60;99.90;;;;;;5035110;28;20176;-71
2024/03/04 00:03:09;;;;;;;39.87;23.53;;;9.60;99.90;;;;;;5035463;28;20538;-71
2024/03/04 00:05:35;;;;;;;39.00;23.20;;;9.60;99.90;;;;;;5034525;28;20192;-70
2024/03/04 00:08:04;;;;;;;37.83;24.13;;;9.50;99.90;;;;;;5033749;28;20195;-70
2024/03/04 00:10:29;;;;;;;39.27;26.13;;;9.50;99.90;;;;;;5033580;28;20172;-69
2024/03/04 00:12:55;;;;;;;43.43;26.63;;;9.40;99.90;;;;;;5033876;28;20525;-70
2024/03/04 00:15:25;;;;;;;39.50;26.53;;;9.40;99.90;;;;;;5033586;28;20195;-69
2024/03/04 00:17:53;;;;;;;40.97;26.83;;;9.40;99.90;;;;;;5033436;28;20168;-71
2024/03/04 00:20:19;;;;;;;38.57;23.90;;;9.40;99.90;;;;;;5033481;28;20178;-72
2024/03/04 00:22:47;;;;;;;38.27;24.63;;;9.40;99.90;;;;;;5033193;28;20210;-70
2024/03/04 00:25:16;;;;;;;43.73;25.30;;;9.40;99.90;;;;;;5034678;28;20183;-71
2024/03/04 00:27:48;;;;;;;38.80;24.20;;;9.30;99.90;;;;;;5034798;28;20172;-70
2024/03/04 00:30:14;;;;;;;38.23;24.07;;;9.30;99.90;;;;;;5015604;28;20397;-71
2024/03/04 00:32:40;;;;;;;46.63;28.80;;;9.30;99.90;;;;;;5032865;28;20175;-71
2024/03/04 00:35:06;;;;;;;43.80;28.40;;;9.30;99.90;;;;;;5033331;28;20615;-71
2024/03/04 00:37:34;;;;;;;45.63;27.97;;;9.30;99.90;;;;;;5033177;28;20167;-71
2024/03/04 00:40:00;;;;;;;49.33;30.57;;;9.40;99.90;;;;;;5032782;28;20653;-70
2024/03/04 00:42:27;;;;;;;44.43;25.90;;;9.40;99.90;;;;;;5032906;28;20304;-69
2024/03/04 00:44:53;;;;;;;50.83;29.10;;;9.30;99.90;;;;;;5032957;28;20353;-70
2024/03/04 00:47:18;;;;;;;48.17;28.33;;;9.30;99.90;;;;;;5033628;28;20741;-70
2024/03/04 00:49:47;;;;;;;49.90;29.90;;;9.20;99.90;;;;;;5033582;28;20163;-70
2024/03/04 00:52:13;;;;;;;53.00;30.43;;;9.30;99.90;;;;;;5033374;28;20536;-70
2024/03/04 00:54:40;;;;;;;45.27;29.57;;;9.20;99.90;;;;;;5032871;28;20337;-70
2024/03/04 00:57:07;;;;;;;48.90;29.93;;;9.20;99.90;;;;;;5032949;28;20171;-70
2024/03/04 00:59:33;;;;;;;51.47;30.60;;;9.20;99.90;;;;;;5032415;28;20171;-70
2024/03/04 01:01:59;;;;;;;45.73;28.50;;;9.30;99.90;;;;;;5032436;28;20199;-70
2024/03/04 01:04:25;;;;;;;49.57;28.67;;;9.30;99.90;;;;;;5032121;28;20412;-70
2024/03/04 01:06:52;;;;;;;46.23;27.47;;;9.30;99.90;;;;;;5032413;28;20172;-70
2024/03/04 01:09:18;;;;;;;53.20;30.10;;;9.20;99.90;;;;;;5032700;28;20170;-71
2024/03/04 01:11:43;;;;;;;54.53;30.07;;;9.30;99.90;;;;;;5032538;28;20183;-70
2024/03/04 01:14:09;;;;;;;52.67;29.87;;;9.20;99.90;;;;;;5032077;28;20187;-71
2024/03/04 01:16:35;;;;;;;48.90;28.57;;;9.20;99.90;;;;;;5031876;28;20191;-70
2024/03/04 01:19:01;;;;;;;49.87;30.30;;;9.30;99.90;;;;;;5032320;28;20211;-71
2024/03/04 01:21:26;;;;;;;55.63;31.47;;;9.30;99.90;;;;;;5032288;28;20195;-71
2024/03/04 01:23:52;;;;;;;59.43;33.37;;;9.20;99.90;;;;;;5032240;28;20237;-69
2024/03/04 01:26:18;;;;;;;53.30;27.70;;;9.20;99.90;;;;;;5032006;28;20183;-71
2024/03/04 01:28:47;;;;;;;61.90;35.53;;;9.10;99.90;;;;;;5031983;28;20186;-71
2024/03/04 01:31:14;;;;;;;67.20;36.20;;;9.20;99.90;;;;;;5031995;28;20175;-70
2024/03/04 01:33:41;;;;;;;65.27;35.10;;;9.10;99.90;;;;;;5032068;28;20646;-70
2024/03/04 01:36:07;;;;;;;56.83;33.43;;;9.10;99.90;;;;;;5031804;28;20167;-70
2024/03/04 01:38:33;;;;;;;63.60;35.27;;;9.10;99.90;;;;;;5031722;28;20175;-70
2024/03/04 01:40:58;;;;;;;69.50;37.87;;;9.10;99.90;;;;;;5031796;28;20577;-70
2024/03/04 01:43:24;;;;;;;66.13;38.90;;;9.10;99.90;;;;;;5031715;28;20665;-71
2024/03/04 01:45:50;;;;;;;71.10;38.80;;;9.10;99.90;;;;;;5032148;28;20269;-70
2024/03/04 01:48:16;;;;;;;59.77;36.37;;;9.00;99.90;;;;;;5034440;28;20215;-69
2024/03/04 01:50:44;;;;;;;68.00;37.83;;;9.00;99.90;;;;;;5032523;28;20255;-70
2024/03/04 01:53:11;;;;;;;53.30;31.03;;;9.00;99.90;;;;;;5032007;28;20171;-70
2024/03/04 01:55:43;;;;;;;58.20;33.87;;;8.90;99.90;;;;;;5031978;28;20184;-70
2024/03/04 01:58:11;;;;;;;70.87;37.33;;;8.90;99.90;;;;;;5012135;28;20175;-70
2024/03/04 02:00:40;;;;;;;60.10;34.37;;;9.00;99.90;;;;;;5012182;28;20179;-71
2024/03/04 02:03:12;;;;;;;61.37;34.73;;;8.90;99.90;;;;;;5013169;28;20160;-71
2024/03/04 02:05:39;;;;;;;60.27;34.73;;;8.90;99.90;;;;;;5012662;28;20542;-70
2024/03/04 02:08:06;;;;;;;58.20;34.53;;;8.90;99.90;;;;;;5012792;28;20230;-70
2024/03/04 02:10:32;;;;;;;55.37;33.17;;;8.90;99.90;;;;;;5013142;28;20457;-70
2024/03/04 02:12:58;;;;;;;59.73;33.33;;;8.90;99.90;;;;;;5032046;28;20159;-71
2024/03/04 02:15:24;;;;;;;53.70;33.53;;;8.90;99.90;;;;;;5031373;28;20183;-70
2024/03/04 02:17:50;;;;;;;47.37;29.47;;;8.90;99.90;;;;;;5031467;28;20651;-70
2024/03/04 02:20:17;;;;;;;55.47;33.43;;;8.90;99.90;;;;;;5031442;28;20172;-68
2024/03/04 02:22:43;;;;;;;45.60;29.50;;;8.90;99.90;;;;;;5035375;28;20211;-70
2024/03/04 02:25:11;;;;;;;52.00;32.27;;;8.80;99.90;;;;;;5035538;28;20742;-70
2024/03/04 02:27:38;;;;;;;51.23;31.00;;;8.80;99.90;;;;;;5035394;28;20179;-69
2024/03/04 02:30:05;;;;;;;49.17;29.93;;;8.80;99.90;;;;;;5035457;28;20187;-69
2024/03/04 02:32:31;;;;;;;49.73;30.63;;;8.80;99.90;;;;;;5035690;28;20259;-70
2024/03/04 02:35:00;;;;;;;46.37;30.40;;;8.80;99.90;;;;;;5035214;28;20191;-70
2024/03/04 02:37:25;;;;;;;49.50;31.27;;;8.90;99.90;;;;;;5035254;28;20554;-70
2024/03/04 02:39:55;;;;;;;42.77;28.10;;;8.90;99.90;;;;;;5036532;28;20247;-70
2024/03/04 02:42:21;;;;;;;44.97;28.63;;;8.90;99.90;;;;;;5036556;28;20514;-69
2024/03/04 02:44:46;;;;;;;45.80;31.10;;;8.90;99.90;;;;;;5035906;28;20290;-71
2024/03/04 02:47:12;;;;;;;36.93;25.17;;;8.90;99.90;;;;;;5035865;28;20183;-70
2024/03/04 02:49:37;;;;;;;41.50;24.53;;;8.80;99.90;;;;;;5034532;28;20183;-70
2024/03/04 02:52:03;;;;;;;36.57;26.10;;;8.80;99.90;;;;;;5034981;28;20186;-70
2024/03/04 02:54:29;;;;;;;34.03;22.00;;;8.80;99.90;;;;;;5034751;28;20595;-70
2024/03/04 02:56:56;;;;;;;33.33;23.47;;;8.80;99.90;;;;;;5034912;28;20249;-70
2024/03/04 02:59:21;;;;;;;29.63;22.40;;;8.80;99.90;;;;;;5034827;28;20655;-70
2024/03/04 03:01:48;;;;;;;31.73;22.07;;;8.80;99.90;;;;;;5034626;28;20286;-70
2024/03/04 03:04:15;;;;;;;39.07;24.47;;;8.80;99.90;;;;;;5034329;28;20582;-69
2024/03/04 03:06:42;;;;;;;34.57;23.70;;;8.80;99.90;;;;;;5034834;28;20175;-70
2024/03/04 03:09:08;;;;;;;38.30;27.87;;;8.80;99.90;;;;;;5034691;28;20622;-70
2024/03/04 03:11:34;;;;;;;33.07;22.97;;;8.80;99.90;;;;;;5035719;28;20643;-70
2024/03/04 03:13:59;;;;;;;35.00;24.73;;;8.80;99.90;;;;;;5034574;28;20226;-70
2024/03/04 03:16:25;;;;;;;36.77;25.40;;;8.80;99.90;;;;;;5034200;28;20255;-70
2024/03/04 03:18:51;;;;;;;36.77;24.10;;;8.80;99.90;;;;;;5034598;28;20180;-69
2024/03/04 03:21:17;;;;;;;35.43;23.23;;;8.80;99.90;;;;;;5034554;28;20762;-69
2024/03/04 03:23:46;;;;;;;37.57;26.80;;;8.80;99.90;;;;;;5034191;28;20532;-70
2024/03/04 03:26:12;;;;;;;39.00;25.63;;;8.80;99.90;;;;;;5034287;28;20231;-70
2024/03/04 03:28:40;;;;;;;36.13;25.20;;;8.80;99.90;;;;;;5034032;28;20255;-71
2024/03/04 03:31:06;;;;;;;36.57;24.93;;;8.80;99.90;;;;;;5033982;28;20266;-71
2024/03/04 03:33:33;;;;;;;39.87;26.93;;;8.80;99.90;;;;;;5034102;28;20171;-71
2024/03/04 03:35:59;;;;;;;43.20;26.10;;;8.80;99.90;;;;;;5033885;28;20184;-71
2024/03/04 03:38:24;;;;;;;36.40;25.83;;;8.80;99.90;;;;;;5034047;28;20206;-70
2024/03/04 03:40:50;;;;;;;36.37;25.10;;;8.80;99.90;;;;;;5033805;28;20325;-70
2024/03/04 03:43:17;;;;;;;39.20;25.03;;;8.80;99.90;;;;;;5034077;28;20178;-70
2024/03/04 03:45:43;;;;;;;35.93;27.30;;;8.80;99.90;;;;;;5033333;28;20617;-70
2024/03/04 03:48:09;;;;;;;36.00;26.63;;;8.80;99.90;;;;;;5034368;28;20172;-70
2024/03/04 03:50:35;;;;;;;42.40;27.03;;;8.80;99.90;;;;;;5034160;28;20202;-70
2024/03/04 03:53:01;;;;;;;38.00;25.90;;;8.80;99.90;;;;;;5034124;28;20195;-70
2024/03/04 03:55:26;;;;;;;42.63;28.43;;;8.90;99.90;;;;;;5033823;28;20704;-70
2024/03/04 03:57:52;;;;;;;42.77;27.50;;;8.90;99.90;;;;;;5033842;28;20178;-70
2024/03/04 04:00:18;;;;;;;43.40;26.43;;;8.90;99.90;;;;;;5033569;28;20184;-70
2024/03/04 04:02:44;;;;;;;44.10;27.50;;;8.80;99.90;;;;;;5033647;28;20203;-70
2024/03/04 04:05:09;;;;;;;44.13;28.07;;;8.80;99.90;;;;;;5015827;28;20191;-70
2024/03/04 04:07:35;;;;;;;45.93;28.20;;;8.80;99.90;;;;;;5033892;28;20672;-70
2024/03/04 04:10:01;;;;;;;43.30;27.30;;;8.80;99.90;;;;;;5033743;28;20267;-70
2024/03/04 04:12:26;;;;;;;47.10;27.63;;;8.80;99.90;;;;;;5033326;28;20190;-70
2024/03/04 04:14:52;;;;;;;42.87;27.57;;;8.70;99.90;;;;;;5033178;28;20670;-70
2024/03/04 04:17:18;;;;;;;40.57;27.63;;;8.80;99.90;;;;;;5033871;28;20177;-70
2024/03/04 04:19:44;;;;;;;39.50;26.20;;;8.70;99.90;;;;;;5033428;28;20520;-71
2024/03/04 04:22:09;;;;;;;36.53;25.87;;;8.80;99.90;;;;;;5033299;28;20195;-71
2024/03/04 04:24:38;;;;;;;39.80;25.83;;;8.80;99.90;;;;;;5033451;28;20206;-70
2024/03/04 04:27:04;;;;;;;39.60;27.10;;;8.80;99.90;;;;;;5033028;28;20210;-70
2024/03/04 04:29:29;;;;;;;42.90;26.93;;;8.80;99.90;;;;;;5033426;28;20199;-71
2024/03/04 04:31:55;;;;;;;38.20;26.93;;;8.80;99.90;;;;;;5033286;28;20203;-70
2024/03/04 04:34:21;;;;;;;47.43;28.00;;;8.80;99.90;;;;;;5034604;28;20742;-70
2024/03/04 04:36:49;;;;;;;41.17;27.13;;;8.70;99.90;;;;;;5032925;28;20250;-70
2024/03/04 04:39:15;;;;;;;43.63;27.07;;;8.70;99.90;;;;;;5032618;28;20597;-70
2024/03/04 04:41:40;;;;;;;43.70;27.77;;;8.70;99.90;;;;;;5033171;28;20278;-70
2024/03/04 04:44:06;;;;;;;42.33;26.73;;;8.70;99.90;;;;;;5032342;28;20207;-71
2024/03/04 04:46:32;;;;;;;40.80;25.30;;;8.70;99.90;;;;;;5032817;28;20222;-70
2024/03/04 04:48:57;;;;;;;36.70;24.00;;;8.60;99.90;;;;;;5032660;28;20167;-70
2024/03/04 04:51:23;;;;;;;37.37;24.57;;;8.60;99.90;;;;;;5032907;28;20176;-70
2024/03/04 04:53:49;;;;;;;36.07;24.93;;;8.70;99.90;;;;;;5032647;28;20268;-70
2024/03/04 04:56:17;;;;;;;40.70;26.20;;;8.70;99.90;;;;;;5032590;28;20179;-71
2024/03/04 04:58:44;;;;;;;35.80;25.47;;;8.80;99.90;;;;;;5032569;28;20206;-70
2024/03/04 05:01:09;;;;;;;43.03;25.73;;;8.80;99.90;;;;;;5032523;28;20208;-70
2024/03/04 05:03:35;;;;;;;41.50;27.80;;;8.80;99.90;;;;;;5032614;28;20175;-71
2024/03/04 05:06:01;;;;;;;34.97;22.67;;;8.80;99.90;;;;;;5032523;28;20167;-70
2024/03/04 05:08:27;;;;;;;34.23;21.40;;;8.80;99.90;;;;;;5032398;28;20182;-70
2024/03/04 05:10:53;;;;;;;27.90;17.97;;;8.80;99.90;;;;;;5032305;28;20209;-70
2024/03/04 05:13:20;;;;;;;25.47;18.17;;;8.70;99.90;;;;;;5032469;28;20178;-71
2024/03/04 05:15:46;;;;;;;23.67;16.07;;;8.70;99.90;;;;;;5032403;28;20187;-70
2024/03/04 05:18:12;;;;;;;25.33;17.43;;;8.70;99.90;;;;;;5014830;28;20233;-70
2024/03/04 05:20:38;;;;;;;22.87;17.10;;;8.70;99.90;;;;;;5032107;28;20723;-70
2024/03/04 05:23:04;;;;;;;26.77;15.87;;;8.70;99.90;;;;;;5031990;28;20266;-70
2024/03/04 05:25:30;;;;;;;22.70;16.67;;;8.60;99.90;;;;;;5032144;28;20187;-70
2024/03/04 05:27:56;;;;;;;24.60;16.63;;;8.60;99.90;;;;;;5031793;28;20226;-69
2024/03/04 05:30:22;;;;;;;22.03;16.67;;;8.60;99.90;;;;;;5031481;28;20195;-70
2024/03/04 05:32:48;;;;;;;22.07;15.67;;;8.50;99.90;;;;;;5032022;28;20195;-69
2024/03/04 05:35:14;;;;;;;23.40;16.77;;;8.50;99.90;;;;;;5031646;28;20184;-70
2024/03/04 05:37:41;;;;;;;23.87;16.73;;;8.50;99.90;;;;;;5031735;28;20226;-70
2024/03/04 05:40:09;;;;;;;25.70;16.63;;;8.50;99.90;;;;;;5031602;28;20174;-70
2024/03/04 05:42:39;;;;;;;20.60;15.70;;;8.50;99.90;;;;;;5031583;28;20202;-70
2024/03/04 05:45:07;;;;;;;20.57;15.83;;;8.50;99.90;;;;;;5031524;28;20202;-69
2024/03/04 05:47:33;;;;;;;20.93;15.07;;;8.50;99.90;;;;;;5031815;28;20540;-70
2024/03/04 05:49:59;;;;;;;17.90;13.87;;;8.50;99.90;;;;;;5031467;28;20164;-70
2024/03/04 05:52:25;;;;;;;19.53;15.50;;;8.50;99.90;;;;;;5031619;28;20266;-71
2024/03/04 05:54:51;;;;;;;21.13;13.73;;;8.50;99.90;;;;;;5030791;28;20640;-71
2024/03/04 05:57:17;;;;;;;17.33;12.20;;;8.50;99.90;;;;;;5032213;28;20584;-70
2024/03/04 05:59:43;;;;;;;18.70;11.37;;;8.50;99.90;;;;;;5031615;28;20258;-70
2024/03/04 06:02:09;;;;;;;17.63;11.97;;;8.50;99.90;;;;;;5031147;28;20199;-69
2024/03/04 06:04:34;;;;;;;16.97;11.40;;;8.40;99.90;;;;;;5031036;28;20195;-69
2024/03/04 06:07:01;;;;;;;16.23;12.90;;;8.40;99.90;;;;;;5031225;28;20176;-69
2024/03/04 06:09:27;;;;;;;14.37;10.70;;;8.40;99.90;;;;;;5031323;28;20510;-69
2024/03/04 06:11:52;;;;;;;16.47;11.70;;;8.40;99.90;;;;;;5031166;28;20182;-71
2024/03/04 06:14:18;;;;;;;14.30;11.30;;;8.40;99.90;;;;;;5013256;28;20195;-70
2024/03/04 06:16:44;;;;;;;20.77;11.67;;;8.40;99.90;;;;;;5031205;28;20186;-70
2024/03/04 06:19:10;;;;;;;15.50;10.97;;;8.30;99.90;;;;;;5030926;28;20231;-70
2024/03/04 06:21:36;;;;;;;14.27;11.10;;;8.30;99.90;;;;;;5031161;28;20284;-70
2024/03/04 06:24:05;;;;;;;15.57;11.43;;;8.30;99.90;;;;;;5030972;28;20258;-70
2024/03/04 06:26:30;;;;;;;15.87;10.67;;;8.40;99.90;;;;;;5030871;28;20171;-70
2024/03/04 06:28:56;;;;;;;14.17;10.17;;;8.40;99.90;;;;;;5030949;28;20255;-70
2024/03/04 06:31:22;;;;;;;14.03;10.43;;;8.40;99.90;;;;;;5030733;28;20225;-69
2024/03/04 06:33:48;;;;;;;18.03;11.23;;;8.40;99.90;;;;;;5030747;28;20283;-70
2024/03/04 06:36:14;;;;;;;18.70;10.73;;;8.40;99.90;;;;;;5030506;28;20179;-70
2024/03/04 06:38:40;;;;;;;14.40;10.47;;;8.40;99.90;;;;;;5030709;28;22017;-71
2024/03/04 06:41:07;;;;;;;14.03;9.90;;;8.40;99.90;;;;;;5030708;28;20767;-70
2024/03/04 06:43:33;;;;;;;12.27;9.97;;;8.40;99.90;;;;;;5030869;28;20696;-70
2024/03/04 06:45:59;;;;;;;20.80;10.80;;;8.40;99.90;;;;;;5030825;28;20225;-70
2024/03/04 06:48:26;;;;;;;13.07;9.93;;;8.40;99.90;;;;;;5030860;28;20167;-71
2024/03/04 06:50:51;;;;;;;13.00;9.47;;;8.50;99.90;;;;;;5030809;28;20171;-71
2024/03/04 06:53:17;;;;;;;11.10;9.47;;;8.50;99.90;;;;;;5030814;28;20711;-70
2024/03/04 06:55:42;;;;;;;15.27;10.40;;;8.50;99.90;;;;;;5030661;28;20194;-70
2024/03/04 06:58:08;;;;;;;16.43;9.80;;;8.50;99.90;;;;;;5030726;28;20639;-71
2024/03/04 07:00:33;;;;;;;17.17;10.60;;;8.50;99.90;;;;;;5030742;28;20168;-70
2024/03/04 07:02:59;;;;;;;13.60;10.20;;;8.50;99.90;;;;;;5030285;28;20195;-71
2024/03/04 07:05:25;;;;;;;10.53;8.70;;;8.50;99.90;;;;;;5030585;28;20556;-71
2024/03/04 07:07:51;;;;;;;15.50;10.63;;;8.60;99.90;;;;;;5033359;28;20269;-70
2024/03/04 07:10:17;;;;;;;10.50;9.50;;;8.70;99.90;;;;;;5033720;28;20647;-71
2024/03/04 07:12:42;;;;;;;11.47;8.93;;;8.70;99.90;;;;;;5034502;28;20186;-71
2024/03/04 07:15:08;;;;;;;13.27;9.93;;;8.70;99.90;;;;;;5032673;28;20211;-71
2024/03/04 07:17:34;;;;;;;12.83;9.90;;;8.70;99.90;;;;;;5035427;28;20182;-70
2024/03/04 07:20:00;;;;;;;14.00;9.57;;;8.70;99.90;;;;;;5036399;28;20251;-70
2024/03/04 07:22:26;;;;;;;13.37;10.07;;;8.70;99.90;;;;;;5033967;28;20294;-70
2024/03/04 07:24:51;;;;;;;14.23;10.13;;;8.70;99.90;;;;;;5033732;28;20569;-70
2024/03/04 07:27:17;;;;;;;11.93;10.67;;;8.70;99.90;;;;;;5034220;28;20172;-71
2024/03/04 07:29:42;;;;;;;15.30;10.20;;;8.60;99.90;;;;;;5034140;28;20172;-70
2024/03/04 07:32:08;;;;;;;11.93;9.27;;;8.70;99.90;;;;;;5016414;28;20434;-70
2024/03/04 07:34:34;;;;;;;10.47;9.33;;;8.70;99.90;;;;;;5033612;28;20199;-70
2024/03/04 07:36:59;;;;;;;12.73;9.40;;;8.80;99.90;;;;;;5033422;28;20297;-71
2024/03/04 07:39:25;;;;;;;13.40;10.17;;;8.80;99.90;;;;;;5033842;28;20275;-71
2024/03/04 07:41:51;;;;;;;12.50;10.37;;;8.90;99.90;;;;;;5034012;28;20203;-70
2024/03/04 07:44:20;;;;;;;11.03;9.77;;;8.90;99.90;;;;;;5033453;28;20207;-70
2024/03/04 07:46:47;;;;;;;11.40;10.17;;;8.90;99.90;;;;;;5033848;28;20247;-70
2024/03/04 07:49:13;;;;;;;10.03;9.03;;;8.90;99.90;;;;;;5033741;28;20520;-70
2024/03/04 07:51:39;;;;;;;11.07;9.23;;;8.90;99.90;;;;;;5033575;28;20195;-70
2024/03/04 07:54:05;;;;;;;10.77;9.67;;;8.90;99.90;;;;;;5033578;28;20200;-70
2024/03/04 07:56:33;;;;;;;10.40;9.30;;;8.80;99.90;;;;;;5033778;28;20250;-69
2024/03/04 07:58:59;;;;;;;11.20;10.03;;;8.80;99.90;;;;;;5033370;28;20179;-70
2024/03/04 08:01:24;;;;;;;10.60;9.07;;;8.70;99.90;;;;;;5033891;28;20670;-70
2024/03/04 08:03:50;;;;;;;11.17;9.37;;;8.80;99.90;;;;;;5033433;28;20195;-70
2024/03/04 08:06:16;;;;;;;11.00;9.20;;;8.80;99.90;;;;;;5033488;28;20168;-70
2024/03/04 08:08:43;;;;;;;10.53;9.20;;;8.90;99.90;;;;;;5033339;28;20263;-70
2024/03/04 08:11:09;;;;;;;10.60;9.10;;;8.90;99.90;;;;;;5033141;28;20279;-71
2024/03/04 08:13:34;;;;;;;11.87;9.90;;;9.00;99.90;;;;;;5033266;28;20175;-70
2024/03/04 08:16:00;;;;;;;15.13;9.93;;;9.10;99.90;;;;;;5033070;28;20534;-70
2024/03/04 08:18:26;;;;;;;15.87;10.00;;;9.10;99.90;;;;;;5031969;28;20194;-70
2024/03/04 08:20:52;;;;;;;11.17;10.00;;;9.10;99.90;;;;;;5032907;28;20171;-70
2024/03/04 08:23:18;;;;;;;14.23;11.10;;;9.10;99.90;;;;;;5033023;28;20237;-71
2024/03/04 08:25:44;;;;;;;15.10;10.67;;;9.20;99.90;;;;;;5032890;28;20187;-70
2024/03/04 08:28:11;;;;;;;14.27;9.63;;;9.20;99.90;;;;;;5032737;28;20176;-70
2024/03/04 08:30:37;;;;;;;10.80;9.33;;;9.20;99.90;;;;;;5032941;28;20172;-70
2024/03/04 08:33:04;;;;;;;12.93;8.27;;;9.20;99.90;;;;;;5031652;28;20639;-70
2024/03/04 08:35:30;;;;;;;12.20;8.57;;;9.30;99.90;;;;;;5032361;28;20207;-70
2024/03/04 08:37:55;;;;;;;10.20;8.57;;;9.30;99.90;;;;;;5033103;28;20520;-71
2024/03/04 08:40:21;;;;;;;10.27;8.27;;;9.40;99.90;;;;;;5033917;28;20175;-70
2024/03/04 08:42:47;;;;;;;8.87;7.97;;;9.50;99.90;;;;;;5035214;28;20199;-71
2024/03/04 08:45:16;;;;;;;9.20;7.20;;;9.50;99.90;;;;;;5032469;28;20214;-71
2024/03/04 08:47:41;;;;;;;10.53;7.90;;;9.60;99.90;;;;;;5032923;28;20302;-72
2024/03/04 08:50:08;;;;;;;8.67;7.77;;;9.70;99.90;;;;;;5030574;28;20341;-72
2024/03/04 08:52:34;;;;;;;9.33;7.50;;;9.80;99.90;;;;;;5032775;28;20225;-71
2024/03/04 08:55:00;;;;;;;9.33;7.10;;;9.80;99.90;;;;;;5031906;28;20223;-72
2024/03/04 08:57:26;;;;;;;8.60;7.27;;;9.90;99.90;;;;;;5032633;28;20176;-71
2024/03/04 08:59:51;;;;;;;10.60;8.20;;;10.10;99.90;;;;;;5032228;28;20176;-72
2024/03/04 09:02:18;;;;;;;10.00;8.77;;;10.10;99.90;;;;;;5032623;28;20203;-72
2024/03/04 09:04:47;;;;;;;9.90;8.93;;;10.20;99.90;;;;;;5032093;28;20183;-72
2024/03/04 09:07:13;;;;;;;12.47;9.77;;;10.20;99.90;;;;;;5032430;28;20191;-72
2024/03/04 09:09:40;;;;;;;10.03;8.60;;;10.20;99.90;;;;;;5032245;28;20251;-72
2024/03/04 09:12:08;;;;;;;12.47;8.57;;;10.20;99.90;;;;;;5032166;28;20172;-72
2024/03/04 09:14:34;;;;;;;10.17;8.90;;;10.20;99.90;;;;;;5030813;28;20199;-70
2024/03/04 09:17:00;;;;;;;11.70;8.60;;;10.30;99.90;;;;;;5032027;28;20286;-70
2024/03/04 09:19:25;;;;;;;8.63;7.73;;;10.20;99.90;;;;;;5032177;28;20175;-71
2024/03/04 09:21:51;;;;;;;10.20;7.60;;;10.20;99.90;;;;;;5032152;28;20222;-72
2024/03/04 09:24:16;;;;;;;12.37;8.30;;;10.20;99.90;;;;;;5030702;28;20202;-72
2024/03/04 09:26:48;;;;;;;9.77;8.70;;;10.20;99.90;;;;;;5031596;28;20178;-71
2024/03/04 09:29:13;;;;;;;8.80;7.90;;;10.20;99.90;;;;;;5031588;28;20251;-71
2024/03/04 09:31:39;;;;;;;9.00;8.17;;;10.30;99.90;;;;;;5031900;28;20258;-72
2024/03/04 09:34:05;;;;;;;10.00;8.67;;;10.30;99.90;;;;;;5031763;28;20239;-71
2024/03/04 09:36:31;;;;;;;9.30;8.47;;;10.40;99.90;;;;;;5031716;28;20535;-71
2024/03/04 09:38:57;;;;;;;11.10;8.93;;;10.40;99.90;;;;;;5031247;28;20186;-71
2024/03/04 09:41:23;;;;;;;10.53;8.43;;;10.50;99.90;;;;;;5031215;28;20704;-72
2024/03/04 09:43:50;;;;;;;8.63;7.70;;;10.40;99.90;;;;;;5031487;28;20203;-70
2024/03/04 09:46:18;;;;;;;10.10;8.47;;;10.40;99.90;;;;;;5031558;28;20168;-70
2024/03/04 09:48:47;;;;;;;10.43;8.20;;;10.40;99.90;;;;;;5031556;28;20195;-70
2024/03/04 09:51:15;;;;;;;8.60;7.33;;;10.40;99.90;;;;;;5031868;28;20179;-70
2024/03/04 09:53:42;;;;;;;11.70;7.90;;;10.40;99.90;;;;;;5031731;28;20175;-71
2024/03/04 09:56:08;;;;;;;9.00;7.70;;;10.40;99.90;;;;;;5031697;28;20175;-71
2024/03/04 09:58:34;;;;;;;9.83;7.63;;;10.20;99.90;;;;;;5031692;28;20167;-70
2024/03/04 10:01:02;;;;;;;9.60;8.47;;;10.20;99.90;;;;;;5031735;28;20202;-70
2024/03/04 10:03:28;;;;;;;10.17;9.00;;;10.00;99.90;;;;;;5033844;28;20176;-71
2024/03/04 10:05:55;;;;;;;9.93;8.83;;;10.00;99.90;;;;;;5033728;28;20172;-70
2024/03/04 10:08:22;;;;;;;11.23;9.17;;;10.00;99.90;;;;;;5031208;28;20244;-70
2024/03/04 10:10:51;;;;;;;10.40;8.40;;;9.80;99.90;;;;;;5031292;28;20541;-71
2024/03/04 10:13:18;;;;;;;12.40;8.63;;;9.80;99.90;;;;;;5031145;28;20532;-70
2024/03/04 10:15:48;;;;;;;9.63;8.40;;;9.80;99.90;;;;;;5031000;28;20762;-70
2024/03/04 10:18:14;;;;;;;9.60;7.47;;;9.70;99.90;;;;;;5031134;28;20254;-71
2024/03/04 10:20:40;;;;;;;10.90;8.00;;;9.70;99.90;;;;;;5031080;28;20174;-71
2024/03/04 10:23:07;;;;;;;9.03;7.20;;;9.70;99.90;;;;;;5030862;28;20195;-71
2024/03/04 10:25:33;;;;;;;8.80;7.90;;;9.60;99.90;;;;;;5030928;28;20664;-71
2024/03/04 10:27:59;;;;;;;9.43;7.80;;;9.60;99.90;;;;;;5031211;28;20167;-71
2024/03/04 10:30:26;;;;;;;9.00;7.50;;;9.60;99.90;;;;;;5031041;28;20577;-70
2024/03/04 10:32:56;;;;;;;9.20;7.73;;;9.60;99.90;;;;;;5031183;28;20171;-71
2024/03/04 10:35:22;;;;;;;9.47;7.87;;;9.60;99.90;;;;;;5030694;28;20229;-71
2024/03/04 10:37:48;;;;;;;10.97;9.00;;;9.60;99.90;;;;;;5030708;28;20190;-70
2024/03/04 10:40:19;;;;;;;12.80;9.70;;;9.70;99.90;;;;;;5030516;28;20523;-70
2024/03/04 10:42:45;;;;;;;10.90;7.37;;;9.70;99.90;;;;;;5033738;28;20207;-70
2024/03/04 10:45:12;;;;;;;11.03;7.73;;;9.70;99.90;;;;;;5034950;28;20261;-72
2024/03/04 10:47:41;;;;;;;9.93;8.43;;;9.80;99.90;;;;;;5035199;28;20171;-70
2024/03/04 10:50:08;;;;;;;9.13;8.23;;;9.90;99.90;;;;;;5034811;28;20167;-70
2024/03/04 10:52:34;;;;;;;9.87;8.13;;;9.80;99.90;;;;;;5034792;28;20225;-70
2024/03/04 10:55:00;;;;;;;10.60;7.80;;;9.80;99.90;;;;;;5034318;28;20187;-70
2024/03/04 10:57:34;;;;;;;9.50;8.03;;;9.90;99.90;;;;;;5034659;28;20219;-71
2024/03/04 11:00:17;;;;;;;8.00;6.87;;;9.90;99.90;;;;;;5016829;28;20183;-70
2024/03/04 11:03:04;;;;;;;9.80;7.67;;;10.00;99.90;;;;;;5034603;28;20203;-70
2024/03/04 11:05:34;;;;;;;9.67;8.07;;;10.00;99.90;;;;;;5034586;28;20187;-70
2024/03/04 11:08:10;;;;;;;10.03;8.70;;;10.10;99.90;;;;;;5034649;28;20647;-70
2024/03/04 11:11:04;;;;;;;9.27;7.47;;;10.20;99.90;;;;;;5034494;28;20220;-70
2024/03/04 11:13:35;;;;;;;11.47;7.97;;;10.20;99.90;;;;;;4993822;28;20214;-70
2024/03/04 11:16:06;;;;;;;8.23;7.43;;;10.30;99.90;;;;;;5034224;28;20195;-70
2024/03/04 11:18:56;;;;;;;7.47;6.77;;;10.30;99.90;;;;;;5034490;28;20532;-72
2024/03/04 11:21:22;;;;;;;7.13;5.80;;;10.30;99.90;;;;;;5034248;28;20670;-70
2024/03/04 11:23:49;;;;;;;9.60;7.37;;;10.40;99.90;;;;;;5034351;28;20167;-71
2024/03/04 11:26:16;;;;;;;6.83;6.13;;;10.60;99.90;;;;;;5034035;28;20194;-70
2024/03/04 11:28:43;;;;;;;5.80;5.30;;;10.70;99.90;;;;;;5034372;28;20176;-70
2024/03/04 11:31:31;;;;;;;6.13;5.63;;;10.80;99.90;;;;;;5034060;28;20191;-70
2024/03/04 11:34:05;;;;;;;7.97;6.57;;;10.80;99.90;;;;;;5016450;28;20192;-70
2024/03/04 11:36:32;;;;;;;6.33;5.70;;;10.70;99.90;;;;;;5033961;28;20170;-70
2024/03/04 11:38:59;;;;;;;6.07;5.47;;;10.70;99.90;;;;;;5033737;28;20206;-70
2024/03/04 11:41:38;;;;;;;6.67;6.17;;;10.70;99.90;;;;;;5033844;28;20207;-70
2024/03/04 11:44:04;;;;;;;6.40;5.80;;;10.60;99.90;;;;;;5033882;28;20670;-72
2024/03/04 11:46:33;;;;;;;6.20;5.70;;;10.60;99.90;;;;;;5015956;28;20535;-70
2024/03/04 11:49:27;;;;;;;6.63;6.03;;;10.50;99.90;;;;;;5033686;28;20216;-70
2024/03/04 11:52:20;;;;;;;6.27;5.80;;;10.50;99.90;;;;;;5033813;28;20237;-70
2024/03/04 11:54:49;;;;;;;6.77;6.10;;;10.50;99.90;;;;;;5032292;28;20191;-70
2024/03/04 11:57:16;;;;;;;6.93;6.30;;;10.50;99.90;;;;;;5033555;28;20176;-69
2024/03/04 11:59:56;;;;;;;8.53;6.40;;;10.50;99.90;;;;;;5033470;28;20647;-70
2024/03/04 12:02:21;;;;;;;6.97;6.27;;;10.40;99.90;;;;;;5033390;28;20573;-69
2024/03/04 12:04:47;;;;;;;9.27;6.80;;;10.50;99.90;;;;;;5033084;28;20222;-70
2024/03/04 12:07:14;;;;;;;12.57;6.43;;;10.60;99.90;;;;;;5033402;28;20172;-71
2024/03/04 12:09:41;;;;;;;7.60;6.90;;;10.70;99.90;;;;;;5033668;28;20190;-70
2024/03/04 12:12:11;;;;;;;7.47;6.77;;;10.90;99.90;;;;;;5015648;28;20179;-71
2024/03/04 12:14:36;;;;;;;6.73;5.93;;;10.90;99.90;;;;;;5032957;28;20198;-70
2024/03/04 12:17:03;;;;;;;7.20;6.50;;;11.00;99.90;;;;;;5033160;28;20539;-71
2024/03/04 12:19:28;;;;;;;6.50;5.90;;;11.10;99.90;;;;;;5015338;28;20207;-70
2024/03/04 12:21:54;;;;;;;6.57;5.97;;;11.10;99.90;;;;;;5033215;28;20203;-70
2024/03/04 12:24:23;;;;;;;6.23;5.73;;;11.10;99.90;;;;;;5032880;28;20693;-69
2024/03/04 12:26:54;;;;;;;7.87;7.10;;;11.30;99.90;;;;;;5033122;28;20655;-69
2024/03/04 12:29:22;;;;;;;7.87;7.13;;;11.50;99.90;;;;;;5032420;28;20171;-70
2024/03/04 12:31:48;;;;;;;6.07;5.57;;;11.70;99.90;;;;;;5029795;28;20273;-69
2024/03/04 12:34:14;;;;;;;8.13;6.17;;;11.80;99.90;;;;;;5029964;28;20203;-69
2024/03/04 12:36:49;;;;;;;5.90;5.40;;;11.70;99.90;;;;;;5015605;28;21854;-69
2024/03/04 12:39:16;;;;;;;8.17;5.83;;;11.70;99.90;;;;;;5032422;28;20171;-69